Stagecoach, Nevada
Current Conditions -  °F | °C
As of 5:35 AM on Saturday 25 Oct 2014 (Local Time) from KCXP Reporting Station
Clear Clear  
Wind Chill: 57°   Ceiling: Unl
Heat Index: 57°   Visibility: 10mi
Dew Point: 23°   Wind: 5mph
Humidity: 27%   Direction: 150°SSE
Pressure: 29.93"   Gusts: NA
Location:  39.3955°N, 119.266°W
Report Text: KCXP 251235Z AUTO 15004KT 10SM CLR 14/M05 A2993 RMK AO2
Loading
Personal Weather Stations






























Interactive Weather Map
Tropical Storm Tracking
New forecast layout! Learn more

10-Day Weather Forecast

Advertisements
Track Severe Weather on mobile